sensor_id;sensor_type;location;lat;lon;timestamp;temperature;humidity
19536;HTU21D;9913;51.168;4.124;2024-03-23T00:53:34;6.73;93.96
19536;HTU21D;9913;51.168;4.124;2024-03-23T00:56:00;6.73;93.46
19536;HTU21D;9913;51.168;4.124;2024-03-23T00:58:28;6.67;93.83
19536;HTU21D;9913;51.168;4.124;2024-03-23T01:00:54;6.67;93.17
19536;HTU21D;9913;51.168;4.124;2024-03-23T01:03:21;6.57;92.57
19536;HTU21D;9913;51.168;4.124;2024-03-23T01:05:47;6.46;92.48
19536;HTU21D;9913;51.168;4.124;2024-03-23T01:08:15;6.36;92.04
19536;HTU21D;9913;51.168;4.124;2024-03-23T01:10:43;6.23;92.21
19536;HTU21D;9913;51.168;4.124;2024-03-23T01:13:20;6.22;91.95
19536;HTU21D;9913;51.168;4.124;2024-03-23T01:15:49;6.22;92.31
19536;HTU21D;9913;51.168;4.124;2024-03-23T01:18:18;6.15;92.41
19536;HTU21D;9913;51.168;4.124;2024-03-23T01:20:44;6.08;92.98
19536;HTU21D;9913;51.168;4.124;2024-03-23T01:23:12;6.14;94.02
19536;HTU21D;9913;51.168;4.124;2024-03-23T01:25:38;6.14;94.06
19536;HTU21D;9913;51.168;4.124;2024-03-23T01:28:07;6.08;93.84
19536;HTU21D;9913;51.168;4.124;2024-03-23T01:30:34;6.15;93.69
19536;HTU21D;9913;51.168;4.124;2024-03-23T01:33:02;6.30;93.71
19536;HTU21D;9913;51.168;4.124;2024-03-23T01:35:28;6.29;92.97
19536;HTU21D;9913;51.168;4.124;2024-03-23T01:37:56;6.23;91.97
19536;HTU21D;9913;51.168;4.124;2024-03-23T01:40:22;6.34;92.46
19536;HTU21D;9913;51.168;4.124;2024-03-23T01:42:56;6.42;92.69
19536;HTU21D;9913;51.168;4.124;2024-03-23T01:45:24;6.39;92.71
19536;HTU21D;9913;51.168;4.124;2024-03-23T01:47:52;6.42;93.16
19536;HTU21D;9913;51.168;4.124;2024-03-23T01:50:18;6.36;93.88
19536;HTU21D;9913;51.168;4.124;2024-03-23T01:52:46;6.39;94.23
19536;HTU21D;9913;51.168;4.124;2024-03-23T01:55:12;6.39;91.50
19536;HTU21D;9913;51.168;4.124;2024-03-23T01:57:40;6.31;89.86
19536;HTU21D;9913;51.168;4.124;2024-03-23T02:00:07;6.30;90.95
19536;HTU21D;9913;51.168;4.124;2024-03-23T02:02:43;6.06;89.39
19536;HTU21D;9913;51.168;4.124;2024-03-23T02:05:10;6.05;90.58
19536;HTU21D;9913;51.168;4.124;2024-03-23T02:07:38;5.92;90.28
19536;HTU21D;9913;51.168;4.124;2024-03-23T02:10:06;5.79;89.79
19536;HTU21D;9913;51.168;4.124;2024-03-23T02:12:33;5.69;90.24
19536;HTU21D;9913;51.168;4.124;2024-03-23T02:15:00;5.68;90.77
19536;HTU21D;9913;51.168;4.124;2024-03-23T02:17:28;5.56;91.11
19536;HTU21D;9913;51.168;4.124;2024-03-23T02:19:56;5.57;91.73
19536;HTU21D;9913;51.168;4.124;2024-03-23T02:22:23;5.50;91.33
19536;HTU21D;9913;51.168;4.124;2024-03-23T02:24:51;5.41;91.05
19536;HTU21D;9913;51.168;4.124;2024-03-23T02:27:18;5.40;92.42
19536;HTU21D;9913;51.168;4.124;2024-03-23T02:29:44;5.30;92.69
19536;HTU21D;9913;51.168;4.124;2024-03-23T02:32:12;5.38;92.89
19536;HTU21D;9913;51.168;4.124;2024-03-23T02:34:38;5.27;92.34
19536;HTU21D;9913;51.168;4.124;2024-03-23T02:37:10;5.21;92.31
19536;HTU21D;9913;51.168;4.124;2024-03-23T02:39:37;5.24;92.07
19536;HTU21D;9913;51.168;4.124;2024-03-23T02:42:06;5.25;92.00
19536;HTU21D;9913;51.168;4.124;2024-03-23T02:44:32;5.27;92.23
19536;HTU21D;9913;51.168;4.124;2024-03-23T02:46:59;5.28;92.05
19536;HTU21D;9913;51.168;4.124;2024-03-23T02:49:26;5.33;92.30
19536;HTU21D;9913;51.168;4.124;2024-03-23T02:51:53;5.27;91.98
19536;HTU21D;9913;51.168;4.124;2024-03-23T02:54:20;5.33;91.58
19536;HTU21D;9913;51.168;4.124;2024-03-23T02:56:47;5.32;91.31
19536;HTU21D;9913;51.168;4.124;2024-03-23T02:59:15;5.26;91.24
19536;HTU21D;9913;51.168;4.124;2024-03-23T03:01:42;5.35;91.60
19536;HTU21D;9913;51.168;4.124;2024-03-23T03:04:08;5.30;91.30
19536;HTU21D;9913;51.168;4.124;2024-03-23T03:06:36;5.24;91.04
19536;HTU21D;9913;51.168;4.124;2024-03-23T03:09:02;5.21;91.05
19536;HTU21D;9913;51.168;4.124;2024-03-23T03:11:30;5.15;91.48
19536;HTU21D;9913;51.168;4.124;2024-03-23T03:13:56;5.12;92.13
19536;HTU21D;9913;51.168;4.124;2024-03-23T03:16:27;5.04;91.85
19536;HTU21D;9913;51.168;4.124;2024-03-23T03:18:53;4.93;92.08
19536;HTU21D;9913;51.168;4.124;2024-03-23T03:21:21;4.90;92.12
19536;HTU21D;9913;51.168;4.124;2024-03-23T03:23:48;4.86;92.65
19536;HTU21D;9913;51.168;4.124;2024-03-23T03:26:17;4.81;92.29
19536;HTU21D;9913;51.168;4.124;2024-03-23T03:28:43;4.81;92.58
19536;HTU21D;9913;51.168;4.124;2024-03-23T03:31:14;4.82;92.62
19536;HTU21D;9913;51.168;4.124;2024-03-23T03:33:42;4.84;92.40
19536;HTU21D;9913;51.168;4.124;2024-03-23T03:36:09;4.80;92.30
19536;HTU21D;9913;51.168;4.124;2024-03-23T03:38:35;4.84;92.56
19536;HTU21D;9913;51.168;4.124;2024-03-23T03:41:04;4.86;93.17
19536;HTU21D;9913;51.168;4.124;2024-03-23T03:43:32;4.86;92.37
19536;HTU21D;9913;51.168;4.124;2024-03-23T03:46:00;4.92;91.55
19536;HTU21D;9913;51.168;4.124;2024-03-23T03:48:26;5.07;91.96
19536;HTU21D;9913;51.168;4.124;2024-03-23T03:50:55;5.08;91.72
19536;HTU21D;9913;51.168;4.124;2024-03-23T03:53:22;5.13;92.18
19536;HTU21D;9913;51.168;4.124;2024-03-23T03:55:49;5.21;91.51
19536;HTU21D;9913;51.168;4.124;2024-03-23T03:58:15;5.26;90.90
19536;HTU21D;9913;51.168;4.124;2024-03-23T04:00:42;5.23;90.69
19536;HTU21D;9913;51.168;4.124;2024-03-23T04:03:09;5.25;90.95
19536;HTU21D;9913;51.168;4.124;2024-03-23T04:05:36;5.24;91.23
19536;HTU21D;9913;51.168;4.124;2024-03-23T04:08:07;5.21;91.02
19536;HTU21D;9913;51.168;4.124;2024-03-23T04:10:34;5.26;91.25
19536;HTU21D;9913;51.168;4.124;2024-03-23T04:13:00;5.13;90.41
19536;HTU21D;9913;51.168;4.124;2024-03-23T04:15:30;5.23;90.23
19536;HTU21D;9913;51.168;4.124;2024-03-23T04:17:56;5.11;90.80
19536;HTU21D;9913;51.168;4.124;2024-03-23T04:20:23;5.17;91.44
19536;HTU21D;9913;51.168;4.124;2024-03-23T04:22:51;5.20;91.31
19536;HTU21D;9913;51.168;4.124;2024-03-23T04:25:18;5.25;91.71
19536;HTU21D;9913;51.168;4.124;2024-03-23T04:27:46;5.16;91.25
19536;HTU21D;9913;51.168;4.124;2024-03-23T04:30:12;5.17;91.30
19536;HTU21D;9913;51.168;4.124;2024-03-23T04:32:41;5.13;90.86
19536;HTU21D;9913;51.168;4.124;2024-03-23T04:35:08;5.08;90.66
19536;HTU21D;9913;51.168;4.124;2024-03-23T04:37:35;5.04;90.82
19536;HTU21D;9913;51.168;4.124;2024-03-23T04:40:04;5.02;90.98
19536;HTU21D;9913;51.168;4.124;2024-03-23T04:42:34;4.94;91.02
19536;HTU21D;9913;51.168;4.124;2024-03-23T04:45:02;4.93;91.47
19536;HTU21D;9913;51.168;4.124;2024-03-23T04:47:30;4.90;91.68
19536;HTU21D;9913;51.168;4.124;2024-03-23T04:49:57;4.78;91.02
19536;HTU21D;9913;51.168;4.124;2024-03-23T04:52:24;4.86;91.07
19536;HTU21D;9913;51.168;4.124;2024-03-23T04:54:51;4.81;91.42
19536;HTU21D;9913;51.168;4.124;2024-03-23T04:57:19;4.75;91.63
19536;HTU21D;9913;51.168;4.124;2024-03-23T04:59:48;4.77;91.74
19536;HTU21D;9913;51.168;4.124;2024-03-23T05:02:14;4.66;91.29
19536;HTU21D;9913;51.168;4.124;2024-03-23T05:04:42;4.78;91.68
19536;HTU21D;9913;51.168;4.124;2024-03-23T05:07:08;4.81;91.14
19536;HTU21D;9913;51.168;4.124;2024-03-23T05:09:36;4.88;91.02
19536;HTU21D;9913;51.168;4.124;2024-03-23T05:12:02;4.90;90.50
19536;HTU21D;9913;51.168;4.124;2024-03-23T05:14:30;4.91;90.67
19536;HTU21D;9913;51.168;4.124;2024-03-23T05:16:57;4.84;90.90
19536;HTU21D;9913;51.168;4.124;2024-03-23T05:19:24;4.96;91.23
19536;HTU21D;9913;51.168;4.124;2024-03-23T05:21:51;4.98;91.66
19536;HTU21D;9913;51.168;4.124;2024-03-23T05:24:19;5.01;91.84
19536;HTU21D;9913;51.168;4.124;2024-03-23T05:26:45;5.15;91.13
19536;HTU21D;9913;51.168;4.124;2024-03-23T05:29:13;5.15;90.60
19536;HTU21D;9913;51.168;4.124;2024-03-23T05:31:40;5.22;90.56
19536;HTU21D;9913;51.168;4.124;2024-03-23T05:34:09;5.21;90.73
19536;HTU21D;9913;51.168;4.124;2024-03-23T05:36:35;5.17;90.47
19536;HTU21D;9913;51.168;4.124;2024-03-23T05:39:03;5.17;90.97
19536;HTU21D;9913;51.168;4.124;2024-03-23T05:41:29;5.18;91.17
19536;HTU21D;9913;51.168;4.124;2024-03-23T05:43:57;5.17;91.11
19536;HTU21D;9913;51.168;4.124;2024-03-23T05:46:23;5.28;89.75
19536;HTU21D;9913;51.168;4.124;2024-03-23T05:48:50;5.31;90.02
19536;HTU21D;9913;51.168;4.124;2024-03-23T05:51:27;5.25;90.52
19536;HTU21D;9913;51.168;4.124;2024-03-23T05:53:54;5.25;90.82
19536;HTU21D;9913;51.168;4.124;2024-03-23T05:56:20;5.22;90.97
19536;HTU21D;9913;51.168;4.124;2024-03-23T05:58:48;5.06;91.85
19536;HTU21D;9913;51.168;4.124;2024-03-23T06:01:14;5.05;91.71
19536;HTU21D;9913;51.168;4.124;2024-03-23T06:03:41;5.08;91.26
19536;HTU21D;9913;51.168;4.124;2024-03-23T06:06:09;5.04;91.41
19536;HTU21D;9913;51.168;4.124;2024-03-23T06:08:40;5.09;91.82
19536;HTU21D;9913;51.168;4.124;2024-03-23T06:11:06;4.98;92.44
19536;HTU21D;9913;51.168;4.124;2024-03-23T06:13:34;5.04;92.82
19536;HTU21D;9913;51.168;4.124;2024-03-23T06:16:01;5.04;92.05
19536;HTU21D;9913;51.168;4.124;2024-03-23T06:18:28;5.01;91.04
19536;HTU21D;9913;51.168;4.124;2024-03-23T06:20:54;5.20;90.38
19536;HTU21D;9913;51.168;4.124;2024-03-23T06:23:22;5.18;89.79
19536;HTU21D;9913;51.168;4.124;2024-03-23T06:25:49;5.19;90.12
19536;HTU21D;9913;51.168;4.124;2024-03-23T06:28:17;5.17;90.12
19536;HTU21D;9913;51.168;4.124;2024-03-23T06:30:44;5.07;91.18
19536;HTU21D;9913;51.168;4.124;2024-03-23T06:33:11;5.24;89.38
19536;HTU21D;9913;51.168;4.124;2024-03-23T06:35:38;5.32;89.13
19536;HTU21D;9913;51.168;4.124;2024-03-23T06:38:05;5.39;88.89
19536;HTU21D;9913;51.168;4.124;2024-03-23T06:40:31;5.49;88.89
19536;HTU21D;9913;51.168;4.124;2024-03-23T06:43:00;5.70;88.44
19536;HTU21D;9913;51.168;4.124;2024-03-23T06:45:26;5.89;88.38
19536;HTU21D;9913;51.168;4.124;2024-03-23T06:47:53;6.08;88.43
19536;HTU21D;9913;51.168;4.124;2024-03-23T06:50:21;6.13;88.50
19536;HTU21D;9913;51.168;4.124;2024-03-23T06:52:49;6.21;88.69
19536;HTU21D;9913;51.168;4.124;2024-03-23T06:55:15;6.20;88.13
19536;HTU21D;9913;51.168;4.124;2024-03-23T06:57:43;6.39;88.23
19536;HTU21D;9913;51.168;4.124;2024-03-23T07:00:12;6.63;88.60
19536;HTU21D;9913;51.168;4.124;2024-03-23T07:02:41;6.68;87.69
19536;HTU21D;9913;51.168;4.124;2024-03-23T07:05:07;6.63;88.06
19536;HTU21D;9913;51.168;4.124;2024-03-23T07:07:35;6.52;88.02
19536;HTU21D;9913;51.168;4.124;2024-03-23T07:10:01;6.45;88.51
19536;HTU21D;9913;51.168;4.124;2024-03-23T07:12:29;6.38;88.90
19536;HTU21D;9913;51.168;4.124;2024-03-23T07:14:55;6.46;88.21
19536;HTU21D;9913;51.168;4.124;2024-03-23T07:17:23;6.49;88.00
19536;HTU21D;9913;51.168;4.124;2024-03-23T07:19:50;6.40;89.12
19536;HTU21D;9913;51.168;4.124;2024-03-23T07:22:17;6.55;88.31
19536;HTU21D;9913;51.168;4.124;2024-03-23T07:24:44;6.69;88.51
19536;HTU21D;9913;51.168;4.124;2024-03-23T07:27:11;6.66;88.45
19536;HTU21D;9913;51.168;4.124;2024-03-23T07:29:37;6.84;88.57
19536;HTU21D;9913;51.168;4.124;2024-03-23T07:32:05;6.87;88.53
19536;HTU21D;9913;51.168;4.124;2024-03-23T07:34:33;7.24;88.15
19536;HTU21D;9913;51.168;4.124;2024-03-23T07:37:00;7.40;87.71
19536;HTU21D;9913;51.168;4.124;2024-03-23T07:39:26;7.42;89.60
19536;HTU21D;9913;51.168;4.124;2024-03-23T07:41:54;7.37;88.94
19536;HTU21D;9913;51.168;4.124;2024-03-23T07:44:20;7.33;88.47
19536;HTU21D;9913;51.168;4.124;2024-03-23T07:46:48;7.24;89.44
19536;HTU21D;9913;51.168;4.124;2024-03-23T07:49:14;7.27;89.53
19536;HTU21D;9913;51.168;4.124;2024-03-23T07:51:43;7.38;90.72
19536;HTU21D;9913;51.168;4.124;2024-03-23T07:54:10;7.49;89.42
19536;HTU21D;9913;51.168;4.124;2024-03-23T07:56:38;7.63;89.34
19536;HTU21D;9913;51.168;4.124;2024-03-23T07:59:04;7.99;92.34
19536;HTU21D;9913;51.168;4.124;2024-03-23T08:01:31;8.33;91.51
19536;HTU21D;9913;51.168;4.124;2024-03-23T08:03:58;8.16;92.75
19536;HTU21D;9913;51.168;4.124;2024-03-23T08:06:25;7.82;92.11
19536;HTU21D;9913;51.168;4.124;2024-03-23T08:08:55;7.83;91.74
19536;HTU21D;9913;51.168;4.124;2024-03-23T08:11:27;8.18;93.43
19536;HTU21D;9913;51.168;4.124;2024-03-23T08:13:53;8.21;95.36
19536;HTU21D;9913;51.168;4.124;2024-03-23T08:16:21;8.17;93.41
19536;HTU21D;9913;51.168;4.124;2024-03-23T08:18:47;7.88;90.31
19536;HTU21D;9913;51.168;4.124;2024-03-23T08:21:14;7.96;92.78
19536;HTU21D;9913;51.168;4.124;2024-03-23T08:23:41;7.86;93.82
19536;HTU21D;9913;51.168;4.124;2024-03-23T08:26:13;7.83;98.48
19536;HTU21D;9913;51.168;4.124;2024-03-23T08:28:39;7.94;95.98
19536;HTU21D;9913;51.168;4.124;2024-03-23T08:31:08;8.05;96.08
19536;HTU21D;9913;51.168;4.124;2024-03-23T08:33:35;8.03;95.93
19536;HTU21D;9913;51.168;4.124;2024-03-23T08:36:04;7.74;93.48
19536;HTU21D;9913;51.168;4.124;2024-03-23T08:38:31;7.69;99.77
19536;HTU21D;9913;51.168;4.124;2024-03-23T08:40:59;7.67;94.33
19536;HTU21D;9913;51.168;4.124;2024-03-23T08:43:27;7.85;92.58
19536;HTU21D;9913;51.168;4.124;2024-03-23T08:46:03;8.03;93.04
19536;HTU21D;9913;51.168;4.124;2024-03-23T08:48:30;8.11;96.36
19536;HTU21D;9913;51.168;4.124;2024-03-23T08:51:01;8.29;106.27
19536;HTU21D;9913;51.168;4.124;2024-03-23T08:53:28;8.43;98.57
19536;HTU21D;9913;51.168;4.124;2024-03-23T08:55:55;8.65;97.13
19536;HTU21D;9913;51.168;4.124;2024-03-23T08:58:23;8.60;97.97
19536;HTU21D;9913;51.168;4.124;2024-03-23T09:00:53;8.86;96.17
19536;HTU21D;9913;51.168;4.124;2024-03-23T09:03:22;8.66;99.09
19536;HTU21D;9913;51.168;4.124;2024-03-23T09:05:50;8.22;97.71
19536;HTU21D;9913;51.168;4.124;2024-03-23T09:08:16;8.31;98.88
19536;HTU21D;9913;51.168;4.124;2024-03-23T09:10:44;8.13;103.92
19536;HTU21D;9913;51.168;4.124;2024-03-23T09:13:10;7.96;98.77
19536;HTU21D;9913;51.168;4.124;2024-03-23T09:15:46;7.60;98.02
19536;HTU21D;9913;51.168;4.124;2024-03-23T09:18:14;7.08;94.51
19536;HTU21D;9913;51.168;4.124;2024-03-23T09:20:41;6.75;99.63
19536;HTU21D;9913;51.168;4.124;2024-03-23T09:23:08;6.86;91.37
19536;HTU21D;9913;51.168;4.124;2024-03-23T09:25:39;6.87;91.65
19536;HTU21D;9913;51.168;4.124;2024-03-23T09:28:06;6.59;92.85
19536;HTU21D;9913;51.168;4.124;2024-03-23T09:30:35;6.63;92.95
19536;HTU21D;9913;51.168;4.124;2024-03-23T09:33:02;6.69;92.98
19536;HTU21D;9913;51.168;4.124;2024-03-23T09:35:31;6.73;92.75
19536;HTU21D;9913;51.168;4.124;2024-03-23T09:37:57;6.76;93.96
19536;HTU21D;9913;51.168;4.124;2024-03-23T09:40:25;6.49;92.79
19536;HTU21D;9913;51.168;4.124;2024-03-23T09:42:51;6.33;94.16
19536;HTU21D;9913;51.168;4.124;2024-03-23T09:45:21;6.22;94.64
19536;HTU21D;9913;51.168;4.124;2024-03-23T09:47:48;6.20;94.40
19536;HTU21D;9913;51.168;4.124;2024-03-23T09:50:17;6.25;93.85
19536;HTU21D;9913;51.168;4.124;2024-03-23T09:52:45;6.51;94.06
19536;HTU21D;9913;51.168;4.124;2024-03-23T09:55:13;7.65;94.27
19536;HTU21D;9913;51.168;4.124;2024-03-23T09:57:40;8.55;97.25
19536;HTU21D;9913;51.168;4.124;2024-03-23T10:00:07;9.33;94.62
19536;HTU21D;9913;51.168;4.124;2024-03-23T10:02:35;10.04;100.22
19536;HTU21D;9913;51.168;4.124;2024-03-23T10:05:02;9.94;100.25
19536;HTU21D;9913;51.168;4.124;2024-03-23T10:07:30;10.46;97.21
19536;HTU21D;9913;51.168;4.124;2024-03-23T10:09:58;9.97;101.28
19536;HTU21D;9913;51.168;4.124;2024-03-23T10:12:35;8.70;101.43
19536;HTU21D;9913;51.168;4.124;2024-03-23T10:15:15;8.18;94.26
19536;HTU21D;9913;51.168;4.124;2024-03-23T10:17:43;7.64;90.89
19536;HTU21D;9913;51.168;4.124;2024-03-23T10:20:12;7.16;95.94
19536;HTU21D;9913;51.168;4.124;2024-03-23T10:22:39;7.05;92.68
19536;HTU21D;9913;51.168;4.124;2024-03-23T10:25:09;7.69;91.85
19536;HTU21D;9913;51.168;4.124;2024-03-23T10:27:36;8.52;95.39
19536;HTU21D;9913;51.168;4.124;2024-03-23T10:30:11;9.44;97.74
19536;HTU21D;9913;51.168;4.124;2024-03-23T10:32:38;9.96;94.14
19536;HTU21D;9913;51.168;4.124;2024-03-23T10:35:15;9.86;96.97
19536;HTU21D;9913;51.168;4.124;2024-03-23T10:37:42;10.10;111.57
19536;HTU21D;9913;51.168;4.124;2024-03-23T10:40:12;8.95;110.80
19536;HTU21D;9913;51.168;4.124;2024-03-23T10:42:38;8.88;106.75
19536;HTU21D;9913;51.168;4.124;2024-03-23T10:45:07;9.62;107.98
19536;HTU21D;9913;51.168;4.124;2024-03-23T10:47:35;10.07;104.27
19536;HTU21D;9913;51.168;4.124;2024-03-23T10:50:03;10.30;103.17
19536;HTU21D;9913;51.168;4.124;2024-03-23T10:52:31;9.60;106.63
19536;HTU21D;9913;51.168;4.124;2024-03-23T10:55:01;9.19;100.41
19536;HTU21D;9913;51.168;4.124;2024-03-23T10:57:34;8.95;107.45
19536;HTU21D;9913;51.168;4.124;2024-03-23T11:00:06;9.98;107.24
19536;HTU21D;9913;51.168;4.124;2024-03-23T11:02:33;9.84;110.35
19536;HTU21D;9913;51.168;4.124;2024-03-23T11:05:00;9.36;106.68
19536;HTU21D;9913;51.168;4.124;2024-03-23T11:07:31;9.09;106.11
19536;HTU21D;9913;51.168;4.124;2024-03-23T11:09:58;8.83;106.88
19536;HTU21D;9913;51.168;4.124;2024-03-23T11:12:36;9.86;105.50
19536;HTU21D;9913;51.168;4.124;2024-03-23T11:15:04;10.81;106.43
19536;HTU21D;9913;51.168;4.124;2024-03-23T11:17:32;11.47;106.65
19536;HTU21D;9913;51.168;4.124;2024-03-23T11:19:59;11.17;110.54
19536;HTU21D;9913;51.168;4.124;2024-03-23T11:22:39;11.20;104.70
19536;HTU21D;9913;51.168;4.124;2024-03-23T11:25:16;11.73;107.41
19536;HTU21D;9913;51.168;4.124;2024-03-23T11:27:45;11.55;107.05
19536;HTU21D;9913;51.168;4.124;2024-03-23T11:30:13;10.74;108.88
19536;HTU21D;9913;51.168;4.124;2024-03-23T11:32:42;9.61;105.53
19536;HTU21D;9913;51.168;4.124;2024-03-23T11:35:08;9.15;110.37
19536;HTU21D;9913;51.168;4.124;2024-03-23T11:37:37;8.74;105.90
19536;HTU21D;9913;51.168;4.124;2024-03-23T11:40:19;8.50;105.98
19536;HTU21D;9913;51.168;4.124;2024-03-23T11:42:55;9.33;109.10
19536;HTU21D;9913;51.168;4.124;2024-03-23T11:45:21;9.94;105.02
19536;HTU21D;9913;51.168;4.124;2024-03-23T11:47:49;10.80;107.27
19536;HTU21D;9913;51.168;4.124;2024-03-23T11:50:27;10.77;108.81
19536;HTU21D;9913;51.168;4.124;2024-03-23T11:53:11;10.53;106.30
19536;HTU21D;9913;51.168;4.124;2024-03-23T11:55:46;9.30;108.31
19536;HTU21D;9913;51.168;4.124;2024-03-23T11:58:16;8.95;105.75
19536;HTU21D;9913;51.168;4.124;2024-03-23T12:00:43;8.88;105.35
19536;HTU21D;9913;51.168;4.124;2024-03-23T12:03:10;8.74;103.98
19536;HTU21D;9913;51.168;4.124;2024-03-23T12:05:37;8.67;104.53
19536;HTU21D;9913;51.168;4.124;2024-03-23T12:08:22;8.78;105.18
19536;HTU21D;9913;51.168;4.124;2024-03-23T12:10:50;9.00;104.63
19536;HTU21D;9913;51.168;4.124;2024-03-23T12:13:20;9.37;104.47
19536;HTU21D;9913;51.168;4.124;2024-03-23T12:15:50;9.52;109.10
19536;HTU21D;9913;51.168;4.124;2024-03-23T12:18:23;10.13;104.58
19536;HTU21D;9913;51.168;4.124;2024-03-23T12:20:50;10.89;106.09
19536;HTU21D;9913;51.168;4.124;2024-03-23T12:23:17;11.55;110.26
19536;HTU21D;9913;51.168;4.124;2024-03-23T12:25:44;12.28;112.21
19536;HTU21D;9913;51.168;4.124;2024-03-23T12:28:11;12.62;107.91
19536;HTU21D;9913;51.168;4.124;2024-03-23T12:30:40;12.40;108.14
19536;HTU21D;9913;51.168;4.124;2024-03-23T12:33:07;12.56;108.49
19536;HTU21D;9913;51.168;4.124;2024-03-23T12:35:34;12.15;107.78
19536;HTU21D;9913;51.168;4.124;2024-03-23T12:38:01;11.27;109.19
19536;HTU21D;9913;51.168;4.124;2024-03-23T12:40:27;10.57;107.75
19536;HTU21D;9913;51.168;4.124;2024-03-23T12:42:55;9.99;111.17
19536;HTU21D;9913;51.168;4.124;2024-03-23T12:45:22;9.60;110.68
19536;HTU21D;9913;51.168;4.124;2024-03-23T12:47:50;9.32;110.33
19536;HTU21D;9913;51.168;4.124;2024-03-23T12:50:19;8.86;109.87
19536;HTU21D;9913;51.168;4.124;2024-03-23T12:52:47;8.56;109.19
19536;HTU21D;9913;51.168;4.124;2024-03-23T12:55:14;8.26;106.85
19536;HTU21D;9913;51.168;4.124;2024-03-23T12:57:41;8.17;110.14
19536;HTU21D;9913;51.168;4.124;2024-03-23T13:00:08;7.74;109.57
19536;HTU21D;9913;51.168;4.124;2024-03-23T13:02:37;7.50;109.17
19536;HTU21D;9913;51.168;4.124;2024-03-23T13:05:07;7.50;106.78
19536;HTU21D;9913;51.168;4.124;2024-03-23T13:07:35;7.00;106.22
19536;HTU21D;9913;51.168;4.124;2024-03-23T13:10:04;6.46;94.12
19536;HTU21D;9913;51.168;4.124;2024-03-23T13:12:31;6.14;94.76
19536;HTU21D;9913;51.168;4.124;2024-03-23T13:14:58;6.02;93.14
19536;HTU21D;9913;51.168;4.124;2024-03-23T13:17:26;5.89;93.91
19536;HTU21D;9913;51.168;4.124;2024-03-23T13:19:53;6.04;95.73
19536;HTU21D;9913;51.168;4.124;2024-03-23T13:22:22;6.44;94.23
19536;HTU21D;9913;51.168;4.124;2024-03-23T13:24:49;7.05;95.19
19536;HTU21D;9913;51.168;4.124;2024-03-23T13:27:17;8.26;93.40
19536;HTU21D;9913;51.168;4.124;2024-03-23T13:29:43;8.91;107.31
19536;HTU21D;9913;51.168;4.124;2024-03-23T13:32:12;9.76;98.16
19536;HTU21D;9913;51.168;4.124;2024-03-23T13:34:38;10.00;106.26
19536;HTU21D;9913;51.168;4.124;2024-03-23T13:37:06;10.16;109.74
19536;HTU21D;9913;51.168;4.124;2024-03-23T13:39:34;9.78;97.48
19536;HTU21D;9913;51.168;4.124;2024-03-23T13:42:02;10.26;105.43
19536;HTU21D;9913;51.168;4.124;2024-03-23T13:44:31;10.80;103.82
19536;HTU21D;9913;51.168;4.124;2024-03-23T13:46:58;10.71;102.18
19536;HTU21D;9913;51.168;4.124;2024-03-23T13:49:26;10.87;102.15
19536;HTU21D;9913;51.168;4.124;2024-03-23T13:51:54;10.51;108.24
19536;HTU21D;9913;51.168;4.124;2024-03-23T13:54:21;10.57;104.74
19536;HTU21D;9913;51.168;4.124;2024-03-23T13:56:50;10.65;105.53
19536;HTU21D;9913;51.168;4.124;2024-03-23T13:59:16;10.60;106.66
19536;HTU21D;9913;51.168;4.124;2024-03-23T14:01:44;11.09;104.98
19536;HTU21D;9913;51.168;4.124;2024-03-23T14:04:12;11.26;105.15
19536;HTU21D;9913;51.168;4.124;2024-03-23T14:06:39;10.92;105.84
19536;HTU21D;9913;51.168;4.124;2024-03-23T14:09:05;11.00;107.22
19536;HTU21D;9913;51.168;4.124;2024-03-23T14:11:35;11.20;104.42
19536;HTU21D;9913;51.168;4.124;2024-03-23T14:14:04;11.71;109.53
19536;HTU21D;9913;51.168;4.124;2024-03-23T14:16:31;11.76;107.52
19536;HTU21D;9913;51.168;4.124;2024-03-23T14:18:58;10.87;107.48
19536;HTU21D;9913;51.168;4.124;2024-03-23T14:21:26;10.27;105.69
19536;HTU21D;9913;51.168;4.124;2024-03-23T14:23:52;9.82;107.15
19536;HTU21D;9913;51.168;4.124;2024-03-23T14:26:21;9.63;104.63
19536;HTU21D;9913;51.168;4.124;2024-03-23T14:28:47;9.64;107.02
19536;HTU21D;9913;51.168;4.124;2024-03-23T14:31:17;10.03;108.16
19536;HTU21D;9913;51.168;4.124;2024-03-23T14:33:44;10.19;105.76
19536;HTU21D;9913;51.168;4.124;2024-03-23T14:36:13;9.81;105.50
19536;HTU21D;9913;51.168;4.124;2024-03-23T14:38:39;9.53;106.79
19536;HTU21D;9913;51.168;4.124;2024-03-23T14:41:07;9.31;105.33
19536;HTU21D;9913;51.168;4.124;2024-03-23T14:43:34;9.14;104.25
19536;HTU21D;9913;51.168;4.124;2024-03-23T14:46:09;8.93;107.03
19536;HTU21D;9913;51.168;4.124;2024-03-23T14:48:37;9.00;106.75
19536;HTU21D;9913;51.168;4.124;2024-03-23T14:51:05;9.14;105.15
19536;HTU21D;9913;51.168;4.124;2024-03-23T14:53:32;9.10;104.13
19536;HTU21D;9913;51.168;4.124;2024-03-23T14:55:59;9.48;106.23
19536;HTU21D;9913;51.168;4.124;2024-03-23T14:58:26;9.88;108.11
19536;HTU21D;9913;51.168;4.124;2024-03-23T15:00:59;9.84;103.20
19536;HTU21D;9913;51.168;4.124;2024-03-23T15:03:26;9.88;105.54
19536;HTU21D;9913;51.168;4.124;2024-03-23T15:05:55;9.99;109.56
19536;HTU21D;9913;51.168;4.124;2024-03-23T15:08:22;10.19;106.77
19536;HTU21D;9913;51.168;4.124;2024-03-23T15:10:50;9.67;107.41
19536;HTU21D;9913;51.168;4.124;2024-03-23T15:13:17;9.75;103.70
19536;HTU21D;9913;51.168;4.124;2024-03-23T15:15:44;10.68;108.09
19536;HTU21D;9913;51.168;4.124;2024-03-23T15:18:11;11.70;110.78
19536;HTU21D;9913;51.168;4.124;2024-03-23T15:20:41;10.69;103.98
19536;HTU21D;9913;51.168;4.124;2024-03-23T15:23:08;10.25;105.11
19536;HTU21D;9913;51.168;4.124;2024-03-23T15:25:36;11.66;107.04
19536;HTU21D;9913;51.168;4.124;2024-03-23T15:28:02;12.52;105.40
19536;HTU21D;9913;51.168;4.124;2024-03-23T15:30:30;12.34;105.53
19536;HTU21D;9913;51.168;4.124;2024-03-23T15:32:56;12.61;21.73
19536;HTU21D;9913;51.168;4.124;2024-03-23T15:35:24;13.26;26.42
19536;HTU21D;9913;51.168;4.124;2024-03-23T15:37:51;12.74;27.91
19536;HTU21D;9913;51.168;4.124;2024-03-23T15:40:19;12.56;27.88
19536;HTU21D;9913;51.168;4.124;2024-03-23T15:42:46;13.19;28.99
19536;HTU21D;9913;51.168;4.124;2024-03-23T15:45:13;12.99;27.62
19536;HTU21D;9913;51.168;4.124;2024-03-23T15:47:42;12.69;26.03
19536;HTU21D;9913;51.168;4.124;2024-03-23T15:50:10;12.80;26.55
19536;HTU21D;9913;51.168;4.124;2024-03-23T15:52:44;12.53;26.79
19536;HTU21D;9913;51.168;4.124;2024-03-23T15:55:25;12.47;29.02
19536;HTU21D;9913;51.168;4.124;2024-03-23T15:57:52;11.76;27.74
19536;HTU21D;9913;51.168;4.124;2024-03-23T16:00:20;11.01;30.20
19536;HTU21D;9913;51.168;4.124;2024-03-23T16:02:47;10.35;34.27
19536;HTU21D;9913;51.168;4.124;2024-03-23T16:05:15;9.94;30.51
19536;HTU21D;9913;51.168;4.124;2024-03-23T16:07:42;9.74;32.12
19536;HTU21D;9913;51.168;4.124;2024-03-23T16:10:10;9.59;32.94
19536;HTU21D;9913;51.168;4.124;2024-03-23T16:12:39;9.60;34.35
19536;HTU21D;9913;51.168;4.124;2024-03-23T16:15:07;9.64;33.44
19536;HTU21D;9913;51.168;4.124;2024-03-23T16:17:35;9.59;34.32
19536;HTU21D;9913;51.168;4.124;2024-03-23T16:20:04;9.52;35.57
19536;HTU21D;9913;51.168;4.124;2024-03-23T16:22:35;9.45;33.49
19536;HTU21D;9913;51.168;4.124;2024-03-23T16:25:03;9.19;33.84
19536;HTU21D;9913;51.168;4.124;2024-03-23T16:27:30;8.86;32.93
19536;HTU21D;9913;51.168;4.124;2024-03-23T16:29:59;8.65;30.64
19536;HTU21D;9913;51.168;4.124;2024-03-23T16:32:26;8.77;29.58
19536;HTU21D;9913;51.168;4.124;2024-03-23T16:34:55;8.87;34.41
19536;HTU21D;9913;51.168;4.124;2024-03-23T16:37:22;8.89;30.09